createdAt,value
2023-01-22T00:00:05.960Z,80.00
2023-01-22T00:02:39.699Z,81.35
2023-01-22T00:05:07.033Z,76.43
2023-01-22T00:07:34.036Z,72.63
2023-01-22T00:10:00.968Z,78.65
2023-01-22T00:12:28.167Z,77.63
2023-01-22T00:14:54.890Z,75.38
2023-01-22T00:17:21.464Z,79.32
2023-01-22T00:19:48.149Z,67.90
2023-01-22T00:22:14.718Z,65.25
2023-01-22T00:24:41.773Z,72.45
2023-01-22T00:27:08.369Z,70.43
2023-01-22T00:29:35.210Z,70.35
2023-01-22T00:32:02.188Z,70.95
2023-01-22T00:34:29.323Z,74.18
2023-01-22T00:36:57.776Z,72.95
2023-01-22T00:39:24.962Z,69.20
2023-01-22T00:41:51.852Z,70.10
2023-01-22T00:44:18.570Z,75.63
2023-01-22T00:46:45.272Z,72.07
2023-01-22T00:49:12.522Z,65.50
2023-01-22T00:51:39.537Z,73.05
2023-01-22T00:54:06.894Z,65.95
2023-01-22T00:56:33.787Z,77.47
2023-01-22T00:59:00.475Z,74.50
2023-01-22T01:01:27.110Z,61.13
2023-01-22T01:03:53.985Z,73.65
2023-01-22T01:06:22.107Z,76.32
2023-01-22T01:08:49.903Z,65.28
2023-01-22T01:11:23.882Z,69.00
2023-01-22T01:13:52.249Z,52.08
2023-01-22T01:16:26.704Z,51.97
2023-01-22T01:18:53.897Z,61.85
2023-01-22T01:22:32.814Z,55.05
2023-01-22T01:24:59.537Z,53.45
2023-01-22T01:27:26.045Z,55.90
2023-01-22T01:29:52.622Z,53.30
2023-01-22T01:32:19.201Z,59.38
2023-01-22T01:34:49.974Z,57.30
2023-01-22T01:37:17.301Z,56.92
2023-01-22T01:39:47.929Z,50.03
2023-01-22T01:42:14.739Z,56.00
2023-01-22T01:44:42.670Z,64.13
2023-01-22T01:47:31.455Z,45.03
2023-01-22T01:49:58.139Z,56.30
2023-01-22T01:52:24.879Z,51.80
2023-01-22T01:54:56.242Z,55.05
2023-01-22T01:57:27.790Z,48.25
2023-01-22T01:59:59.000Z,54.50
2023-01-22T02:02:25.908Z,43.00
2023-01-22T02:04:53.920Z,52.97
2023-01-22T02:07:21.218Z,40.75
2023-01-22T02:09:47.960Z,40.55
2023-01-22T02:12:14.714Z,49.42
2023-01-22T02:14:44.451Z,53.05
2023-01-22T02:17:20.090Z,40.65
2023-01-22T02:19:50.312Z,46.83
2023-01-22T02:22:21.597Z,50.75
2023-01-22T02:24:49.268Z,43.50
2023-01-22T02:27:17.357Z,40.78
2023-01-22T02:29:45.107Z,45.75
2023-01-22T02:32:12.709Z,40.05
2023-01-22T02:34:39.421Z,43.65
2023-01-22T02:37:06.600Z,46.15
2023-01-22T02:39:33.332Z,45.20
2023-01-22T02:42:05.202Z,46.42
2023-01-22T02:44:32.171Z,40.35
2023-01-22T02:46:58.919Z,47.63
2023-01-22T02:49:26.887Z,43.13
2023-01-22T02:51:53.653Z,43.33
2023-01-22T02:54:21.360Z,49.80
2023-01-22T02:56:48.594Z,49.60
2023-01-22T02:59:15.407Z,43.00
2023-01-22T03:01:42.703Z,45.33
2023-01-22T03:04:12.306Z,44.95
2023-01-22T03:06:43.949Z,46.17
2023-01-22T03:09:13.856Z,48.28
2023-01-22T03:11:42.314Z,47.70
2023-01-22T03:14:32.492Z,43.55
2023-01-22T03:17:17.917Z,38.22
2023-01-22T03:20:03.507Z,48.95
2023-01-22T03:22:31.763Z,37.28
2023-01-22T03:25:00.419Z,41.28
2023-01-22T03:27:29.760Z,37.65
2023-01-22T03:29:57.441Z,47.17
2023-01-22T03:32:24.350Z,44.58
2023-01-22T03:34:51.480Z,36.92
2023-01-22T03:37:18.447Z,39.78
2023-01-22T03:39:47.359Z,36.97
2023-01-22T03:42:24.898Z,39.20
2023-01-22T03:44:51.498Z,39.60
2023-01-22T03:47:18.105Z,38.08
2023-01-22T03:49:44.810Z,43.78
2023-01-22T03:52:11.356Z,35.50
2023-01-22T03:54:39.806Z,36.40
2023-01-22T03:57:07.657Z,40.72
2023-01-22T03:59:37.655Z,37.55
2023-01-22T04:02:07.022Z,40.22
2023-01-22T04:04:44.625Z,37.85
2023-01-22T04:07:12.103Z,39.50
2023-01-22T04:09:39.629Z,39.25
2023-01-22T04:12:06.763Z,40.67
2023-01-22T04:14:33.403Z,40.75
2023-01-22T04:17:02.333Z,39.92
2023-01-22T04:19:28.893Z,36.97
2023-01-22T04:21:55.590Z,36.97
2023-01-22T04:24:22.153Z,40.08
2023-01-22T04:29:14.354Z,37.40
2023-01-22T04:31:41.430Z,43.67
2023-01-22T04:34:20.421Z,38.17
2023-01-22T04:37:00.240Z,44.33
2023-01-22T04:39:31.476Z,38.60
2023-01-22T04:42:00.393Z,34.55
2023-01-22T04:44:27.167Z,49.85
2023-01-22T04:46:53.838Z,37.00
2023-01-22T04:49:20.373Z,36.85
2023-01-22T04:51:48.806Z,39.60
2023-01-22T04:54:15.431Z,30.50
2023-01-22T04:56:42.111Z,44.15
2023-01-22T04:59:09.061Z,36.88
2023-01-22T05:01:36.808Z,32.80
2023-01-22T05:04:04.749Z,35.95
2023-01-22T05:06:33.784Z,28.13
2023-01-22T05:09:01.678Z,35.08
2023-01-22T05:11:33.612Z,37.72
2023-01-22T05:14:02.608Z,33.67
2023-01-22T05:16:29.497Z,34.50
2023-01-22T05:18:56.214Z,35.22
2023-01-22T05:21:22.852Z,32.83
2023-01-22T05:23:49.397Z,36.70
2023-01-22T05:26:17.022Z,30.65
2023-01-22T05:28:58.050Z,33.40
2023-01-22T05:31:33.363Z,44.35
2023-01-22T05:34:02.417Z,33.08
2023-01-22T05:36:30.383Z,36.90
2023-01-22T05:39:02.621Z,30.63
2023-01-22T05:41:29.670Z,33.33
2023-01-22T05:43:56.861Z,42.10
2023-01-22T05:46:27.895Z,46.33
2023-01-22T05:49:18.559Z,39.25
2023-01-22T05:51:45.342Z,44.22
2023-01-22T05:54:13.337Z,39.90
2023-01-22T05:56:42.567Z,42.28
2023-01-22T05:59:09.145Z,39.78
2023-01-22T06:01:35.910Z,50.13
2023-01-22T06:04:02.885Z,48.58
2023-01-22T06:06:29.568Z,43.97
2023-01-22T06:08:56.486Z,51.88
2023-01-22T06:11:25.707Z,26.27
2023-01-22T06:13:52.260Z,30.65
2023-01-22T06:16:21.441Z,37.97
2023-01-22T06:19:10.352Z,31.52
2023-01-22T06:21:44.482Z,39.45
2023-01-22T06:24:11.980Z,42.50
2023-01-22T06:26:39.727Z,41.20
2023-01-22T06:29:09.036Z,36.28
2023-01-22T06:31:35.976Z,33.58
2023-01-22T06:34:06.972Z,35.50
2023-01-22T06:36:33.718Z,35.08
2023-01-22T06:39:01.263Z,40.42
2023-01-22T06:41:46.727Z,35.35
2023-01-22T06:44:15.615Z,37.67
2023-01-22T06:46:42.341Z,40.22
2023-01-22T06:49:11.276Z,32.42
2023-01-22T06:51:39.931Z,36.17
2023-01-22T06:54:06.969Z,33.38
2023-01-22T06:56:33.849Z,34.35
2023-01-22T06:59:03.079Z,37.35
2023-01-22T07:01:29.787Z,32.88
2023-01-22T07:03:56.708Z,38.08
2023-01-22T07:06:23.749Z,37.63
2023-01-22T07:08:50.435Z,39.45
2023-01-22T07:11:17.101Z,32.50
2023-01-22T07:13:43.715Z,29.17
2023-01-22T07:16:10.330Z,37.58
2023-01-22T07:18:37.053Z,30.58
2023-01-22T07:21:05.397Z,35.85
2023-01-22T07:26:09.193Z,37.05
2023-01-22T07:28:35.896Z,44.45
2023-01-22T07:31:03.689Z,42.63
2023-01-22T07:33:30.548Z,37.00
2023-01-22T07:35:58.022Z,32.97
2023-01-22T07:38:27.947Z,37.65
2023-01-22T07:41:00.249Z,32.30
2023-01-22T07:43:26.913Z,39.15
2023-01-22T07:45:54.027Z,38.90
2023-01-22T07:48:20.762Z,31.85
2023-01-22T07:50:47.387Z,33.58
2023-01-22T07:53:14.027Z,30.38
2023-01-22T07:55:41.058Z,33.42
2023-01-22T07:58:07.957Z,39.45
2023-01-22T08:00:35.613Z,26.52
2023-01-22T08:03:05.403Z,39.13
2023-01-22T08:05:32.013Z,36.25
2023-01-22T08:07:58.946Z,38.90
2023-01-22T08:10:25.684Z,32.95
2023-01-22T08:12:52.439Z,28.60
2023-01-22T08:15:19.121Z,32.28
2023-01-22T08:17:49.373Z,37.03
2023-01-22T08:20:16.454Z,36.47
2023-01-22T08:22:44.078Z,33.58
2023-01-22T08:25:10.940Z,37.60
2023-01-22T08:27:37.520Z,39.08
2023-01-22T08:30:05.849Z,46.90
2023-01-22T08:32:32.469Z,37.75
2023-01-22T08:37:00.998Z,32.90
2023-01-22T08:39:27.661Z,51.63
2023-01-22T08:41:57.541Z,39.97
2023-01-22T08:44:24.998Z,44.20
2023-01-22T08:46:52.176Z,36.75
2023-01-22T08:49:18.833Z,38.58
2023-01-22T08:51:45.479Z,37.35
2023-01-22T08:54:12.229Z,42.47
2023-01-22T08:56:38.819Z,44.60
2023-01-22T08:59:06.600Z,40.58
2023-01-22T09:01:33.993Z,44.85
2023-01-22T09:04:00.607Z,33.63
2023-01-22T09:06:27.218Z,42.47
2023-01-22T09:08:54.169Z,39.47
2023-01-22T09:11:20.774Z,33.95
2023-01-22T09:13:47.389Z,43.22
2023-01-22T09:16:14.104Z,41.55
2023-01-22T09:18:40.842Z,37.08
2023-01-22T09:21:08.454Z,36.15
2023-01-22T09:23:35.237Z,34.40
2023-01-22T09:26:02.033Z,42.63
2023-01-22T09:28:28.671Z,38.72
2023-01-22T09:30:55.464Z,40.78
2023-01-22T09:33:22.144Z,36.97
2023-01-22T09:35:48.723Z,39.78
2023-01-22T09:38:16.449Z,45.67
2023-01-22T09:40:51.413Z,43.92
2023-01-22T09:43:58.992Z,39.40
2023-01-22T09:46:39.759Z,38.92
2023-01-22T09:49:14.385Z,34.90
2023-01-22T09:51:42.987Z,43.10
2023-01-22T09:54:12.954Z,44.25
2023-01-22T09:56:43.821Z,42.95
2023-01-22T09:59:23.777Z,43.08
2023-01-22T10:01:55.084Z,45.10
2023-01-22T10:04:31.152Z,45.20
2023-01-22T10:07:00.598Z,33.78
2023-01-22T10:09:32.321Z,40.67
2023-01-22T10:12:01.968Z,49.00
2023-01-22T10:14:30.169Z,46.33
2023-01-22T10:17:00.429Z,44.78
2023-01-22T10:19:55.727Z,41.42
2023-01-22T10:22:25.318Z,45.78
2023-01-22T10:24:52.663Z,41.97
2023-01-22T10:27:22.637Z,43.40
2023-01-22T10:30:08.065Z,47.60
2023-01-22T10:32:34.747Z,53.72
2023-01-22T10:35:19.811Z,52.28
2023-01-22T10:37:52.301Z,56.72
2023-01-22T10:40:25.699Z,44.58
2023-01-22T10:43:16.240Z,48.83
2023-01-22T10:48:15.214Z,51.42
2023-01-22T10:50:43.312Z,56.20
2023-01-22T10:53:26.719Z,55.33
2023-01-22T10:55:57.217Z,51.22
2023-01-22T10:58:29.711Z,51.20
2023-01-22T11:01:06.613Z,61.90
2023-01-22T11:03:39.358Z,50.70
2023-01-22T11:06:36.814Z,52.17
2023-01-22T11:09:15.840Z,62.08
2023-01-22T11:11:52.876Z,61.42
2023-01-22T11:14:33.857Z,63.60
2023-01-22T11:17:11.397Z,58.47
2023-01-22T11:19:47.634Z,61.00
2023-01-22T11:22:27.655Z,58.50
2023-01-22T11:24:54.673Z,60.35
2023-01-22T11:27:33.263Z,69.95
2023-01-22T11:30:25.218Z,60.92
2023-01-22T11:33:01.542Z,52.10
2023-01-22T11:35:48.228Z,59.13
2023-01-22T11:38:42.726Z,51.28
2023-01-22T11:41:36.587Z,53.85
2023-01-22T11:44:29.504Z,55.58
2023-01-22T11:47:05.201Z,54.17
2023-01-22T11:49:56.810Z,60.03
2023-01-22T11:52:35.644Z,47.60
2023-01-22T11:55:02.417Z,48.13
2023-01-22T11:57:49.140Z,49.20
2023-01-22T12:00:34.054Z,59.17
2023-01-22T12:03:03.539Z,60.70
2023-01-22T12:05:45.990Z,54.13
2023-01-22T12:08:41.082Z,70.28
2023-01-22T12:11:28.580Z,63.40
2023-01-22T12:14:11.838Z,76.22
2023-01-22T12:16:59.737Z,71.50
2023-01-22T12:19:44.506Z,68.20
2023-01-22T12:22:41.204Z,58.78
2023-01-22T12:25:35.116Z,65.18
2023-01-22T12:28:18.749Z,63.75
2023-01-22T12:31:08.320Z,69.05
2023-01-22T12:33:41.211Z,61.55
2023-01-22T12:36:13.235Z,66.22
2023-01-22T12:39:09.071Z,62.70
2023-01-22T12:41:47.636Z,78.03
2023-01-22T12:44:40.550Z,72.32
2023-01-22T12:47:41.040Z,67.03
2023-01-22T12:50:25.328Z,69.00
2023-01-22T12:53:20.165Z,70.55
2023-01-22T12:56:06.899Z,72.43
2023-01-22T12:58:36.946Z,72.43
2023-01-22T13:01:03.705Z,85.15
2023-01-22T13:03:32.012Z,89.22
2023-01-22T13:06:01.634Z,83.88
2023-01-22T13:08:39.748Z,87.70
2023-01-22T13:11:10.753Z,73.72
2023-01-22T13:13:37.237Z,86.30
2023-01-22T13:16:20.957Z,73.97
2023-01-22T13:18:50.892Z,95.57
2023-01-22T13:21:23.900Z,92.45
2023-01-22T13:23:50.900Z,93.95
2023-01-22T13:26:24.558Z,85.20
2023-01-22T13:29:01.102Z,91.03
2023-01-22T13:31:28.106Z,103.63
2023-01-22T13:34:08.905Z,94.30
2023-01-22T13:36:44.630Z,110.13
2023-01-22T13:39:24.733Z,97.63
2023-01-22T13:41:54.008Z,97.45
2023-01-22T13:44:23.701Z,107.60
2023-01-22T13:46:51.948Z,99.28
2023-01-22T13:49:23.291Z,84.28
2023-01-22T13:51:50.807Z,83.90
2023-01-22T13:54:45.512Z,93.97
2023-01-22T13:57:14.441Z,83.57
2023-01-22T13:59:52.329Z,93.10
2023-01-22T14:02:19.118Z,96.78
2023-01-22T14:04:46.835Z,80.60
2023-01-22T14:07:29.041Z,102.18
2023-01-22T14:09:57.016Z,84.38
2023-01-22T14:12:26.698Z,85.40
2023-01-22T14:14:54.550Z,82.70
2023-01-22T14:17:30.411Z,88.65
2023-01-22T14:19:57.835Z,98.47
2023-01-22T14:22:27.382Z,251.52
2023-01-22T14:24:54.713Z,114.07
2023-01-22T14:27:23.932Z,129.18
2023-01-22T14:29:53.661Z,104.88
2023-01-22T14:32:20.529Z,206.68
2023-01-22T14:34:47.185Z,223.27
2023-01-22T14:37:18.224Z,96.13
2023-01-22T14:39:44.881Z,162.77
2023-01-22T14:42:11.471Z,127.72
2023-01-22T14:44:38.187Z,142.27
2023-01-22T14:47:07.766Z,185.20
2023-01-22T14:49:35.678Z,312.88
2023-01-22T14:52:03.464Z,162.05
2023-01-22T14:54:30.125Z,135.80
2023-01-22T14:56:58.260Z,101.60
2023-01-22T14:59:24.885Z,111.55
2023-01-22T15:01:51.406Z,129.65
2023-01-22T15:04:18.241Z,137.77
2023-01-22T15:06:44.811Z,142.75
2023-01-22T15:09:11.667Z,119.53
2023-01-22T15:11:38.307Z,122.93
2023-01-22T15:14:05.619Z,129.70
2023-01-22T15:16:32.848Z,137.07
2023-01-22T15:18:59.754Z,131.98
2023-01-22T15:21:26.301Z,262.35
2023-01-22T15:23:53.072Z,129.40
2023-01-22T15:26:26.884Z,151.48
2023-01-22T15:28:54.884Z,152.25
2023-01-22T15:31:21.468Z,158.48
2023-01-22T15:33:48.280Z,147.52
2023-01-22T15:36:18.164Z,149.70
2023-01-22T15:38:45.073Z,141.88
2023-01-22T15:41:26.744Z,210.00
2023-01-22T15:43:55.713Z,135.13
2023-01-22T15:46:24.600Z,141.93
2023-01-22T15:48:51.696Z,163.30
2023-01-22T15:51:19.393Z,178.38
2023-01-22T15:53:50.526Z,146.20
2023-01-22T15:56:19.035Z,164.65
2023-01-22T15:58:46.066Z,180.38
2023-01-22T16:01:12.797Z,147.02
2023-01-22T16:03:39.429Z,158.13
2023-01-22T16:06:15.034Z,147.07
2023-01-22T16:08:42.974Z,177.75
2023-01-22T16:11:13.142Z,167.93
2023-01-22T16:13:40.624Z,174.52
2023-01-22T16:16:15.772Z,176.60
2023-01-22T16:18:43.279Z,201.40
2023-01-22T16:21:10.486Z,276.48
2023-01-22T16:23:42.118Z,306.45
2023-01-22T16:26:18.255Z,215.98
2023-01-22T16:28:46.334Z,201.65
2023-01-22T16:31:24.761Z,205.52
2023-01-22T16:33:58.663Z,177.48
2023-01-22T16:36:28.345Z,223.65
2023-01-22T16:38:55.717Z,299.27
2023-01-22T16:41:28.415Z,301.15
2023-01-22T16:44:13.434Z,270.92
2023-01-22T16:46:44.581Z,226.63
2023-01-22T16:49:18.873Z,366.55
2023-01-22T16:51:47.958Z,283.88
2023-01-22T16:54:33.380Z,317.27
2023-01-22T16:57:03.659Z,276.83
2023-01-22T16:59:31.782Z,230.23
2023-01-22T17:01:59.812Z,238.18
2023-01-22T17:04:27.227Z,205.50
2023-01-22T17:06:55.934Z,214.02
2023-01-22T17:09:25.787Z,279.60
2023-01-22T17:11:57.612Z,265.65
2023-01-22T17:14:27.064Z,399.80
2023-01-22T17:18:38.769Z,347.30
2023-01-22T17:21:07.963Z,370.13
2023-01-22T17:23:34.947Z,302.05
2023-01-22T17:26:09.450Z,305.17
2023-01-22T17:28:37.510Z,202.30
2023-01-22T17:31:06.507Z,194.00
2023-01-22T17:33:33.783Z,174.80
2023-01-22T17:36:00.912Z,167.57
2023-01-22T17:39:50.664Z,190.30
2023-01-22T17:42:18.495Z,167.88
2023-01-22T17:44:45.090Z,201.25
2023-01-22T17:47:11.988Z,172.35
2023-01-22T17:49:38.622Z,198.43
2023-01-22T17:52:05.669Z,170.98
2023-01-22T17:54:32.328Z,156.52
2023-01-22T17:56:59.019Z,244.82
2023-01-22T17:59:25.675Z,211.77
2023-01-22T18:01:52.589Z,148.32
2023-01-22T18:04:19.499Z,214.70
2023-01-22T18:06:46.389Z,170.95
2023-01-22T18:09:13.349Z,178.50
2023-01-22T18:11:41.026Z,168.77
2023-01-22T18:14:12.126Z,138.13
2023-01-22T18:16:40.974Z,182.88
2023-01-22T18:19:08.287Z,164.40
2023-01-22T18:21:39.013Z,158.18
2023-01-22T18:24:08.123Z,183.57
2023-01-22T18:26:36.196Z,203.80
2023-01-22T18:29:03.994Z,166.32
2023-01-22T18:31:34.057Z,179.30
2023-01-22T18:34:13.123Z,219.65
2023-01-22T18:36:41.992Z,139.50
2023-01-22T18:39:12.963Z,162.57
2023-01-22T18:41:42.331Z,203.65
2023-01-22T18:44:10.045Z,187.70
2023-01-22T18:46:37.150Z,202.27
2023-01-22T18:49:07.602Z,240.77
2023-01-22T18:51:34.610Z,272.75
2023-01-22T18:54:03.067Z,193.48
2023-01-22T18:56:29.882Z,187.63
2023-01-22T19:01:27.429Z,240.18
2023-01-22T19:03:58.156Z,239.85
2023-01-22T19:06:27.852Z,220.52
2023-01-22T19:09:04.203Z,292.02
2023-01-22T19:11:40.591Z,291.00
2023-01-22T19:14:09.196Z,156.75
2023-01-22T19:16:37.467Z,161.23
2023-01-22T19:19:11.324Z,211.15
2023-01-22T19:21:40.324Z,207.23
2023-01-22T19:24:13.644Z,245.70
2023-01-22T19:26:41.747Z,188.93
2023-01-22T19:29:17.536Z,223.98
2023-01-22T19:31:52.059Z,156.48
2023-01-22T19:34:26.518Z,161.40
2023-01-22T19:37:01.294Z,203.95
2023-01-22T19:39:29.939Z,499.77
2023-01-22T19:41:58.062Z,512.60
2023-01-22T19:44:24.987Z,239.07
2023-01-22T19:46:51.689Z,200.57
2023-01-22T19:49:18.365Z,249.00
2023-01-22T19:51:45.037Z,191.98
2023-01-22T19:54:12.356Z,165.27
2023-01-22T19:56:41.211Z,191.88
2023-01-22T19:59:12.300Z,203.02
2023-01-22T20:01:46.147Z,253.27
2023-01-22T20:04:25.337Z,204.15
2023-01-22T20:07:03.948Z,197.65
2023-01-22T20:09:36.522Z,194.07
2023-01-22T20:12:05.685Z,188.73
2023-01-22T20:14:41.378Z,189.43
2023-01-22T20:17:08.152Z,150.13
2023-01-22T20:19:38.174Z,154.85
2023-01-22T20:22:11.248Z,181.02
2023-01-22T20:24:41.040Z,152.35
2023-01-22T20:27:14.955Z,159.65
2023-01-22T20:29:44.733Z,139.40
2023-01-22T20:34:42.908Z,267.75
2023-01-22T20:37:09.728Z,200.90
2023-01-22T20:39:37.061Z,182.93
2023-01-22T20:42:14.652Z,155.10
2023-01-22T20:44:41.585Z,150.07
2023-01-22T20:47:10.810Z,141.73
2023-01-22T20:49:41.032Z,140.82
2023-01-22T20:52:09.396Z,112.80
2023-01-22T20:54:50.103Z,153.82
2023-01-22T20:57:25.825Z,138.57
2023-01-22T20:59:55.621Z,137.52
2023-01-22T21:02:35.256Z,127.82
2023-01-22T21:05:04.813Z,129.98
2023-01-22T21:07:42.371Z,171.43
2023-01-22T21:10:12.367Z,173.55
2023-01-22T21:12:41.499Z,141.48
2023-01-22T21:15:09.129Z,134.57
2023-01-22T21:17:38.959Z,150.85
2023-01-22T21:20:07.058Z,121.15
2023-01-22T21:22:33.903Z,161.68
2023-01-22T21:25:00.708Z,148.50
2023-01-22T21:27:28.364Z,108.70
2023-01-22T21:29:55.190Z,136.02
2023-01-22T21:32:22.821Z,151.20
2023-01-22T21:34:49.472Z,133.43
2023-01-22T21:37:16.155Z,132.45
2023-01-22T21:39:45.909Z,121.75
2023-01-22T21:42:31.397Z,137.40
2023-01-22T21:45:16.889Z,130.25
2023-01-22T21:47:43.468Z,125.75
2023-01-22T21:50:10.586Z,118.63
2023-01-22T21:52:37.328Z,105.80
2023-01-22T21:55:04.294Z,109.80
2023-01-22T21:57:30.852Z,120.28
2023-01-22T21:59:57.482Z,107.60
2023-01-22T22:02:24.309Z,341.27
2023-01-22T22:04:50.939Z,252.32
2023-01-22T22:07:18.203Z,256.10
2023-01-22T22:09:44.803Z,122.70
2023-01-22T22:12:11.629Z,426.27
2023-01-22T22:14:38.180Z,167.88
2023-01-22T22:17:04.760Z,135.32
2023-01-22T22:19:31.847Z,144.55
2023-01-22T22:21:58.505Z,353.88
2023-01-22T22:24:26.457Z,220.85
2023-01-22T22:26:53.043Z,142.30
2023-01-22T22:29:20.060Z,113.85
2023-01-22T22:31:46.862Z,119.05
2023-01-22T22:34:16.177Z,117.55
2023-01-22T22:36:42.934Z,117.72
2023-01-22T22:39:10.307Z,143.35
2023-01-22T22:41:38.542Z,152.63
2023-01-22T22:44:06.182Z,169.15
2023-01-22T22:46:35.385Z,134.23
2023-01-22T22:49:03.609Z,159.45
2023-01-22T22:51:36.220Z,139.18
2023-01-22T22:54:07.684Z,149.82
2023-01-22T22:56:34.875Z,117.53
2023-01-22T22:59:02.949Z,206.75
2023-01-22T23:01:33.034Z,176.20
2023-01-22T23:04:00.940Z,189.25
2023-01-22T23:06:30.011Z,143.02
2023-01-22T23:09:11.143Z,144.60
2023-01-22T23:11:38.635Z,149.55
2023-01-22T23:14:06.127Z,141.75
2023-01-22T23:16:38.774Z,146.68
2023-01-22T23:19:13.476Z,174.65
2023-01-22T23:21:41.613Z,190.25
2023-01-22T23:24:13.934Z,196.75
2023-01-22T23:29:11.246Z,133.98
2023-01-22T23:31:39.348Z,166.88
2023-01-22T23:34:10.064Z,156.88
2023-01-22T23:36:36.699Z,146.15
2023-01-22T23:39:04.118Z,154.18
2023-01-22T23:41:30.762Z,212.05
2023-01-22T23:43:57.387Z,220.50
2023-01-22T23:46:26.801Z,191.18
2023-01-22T23:48:55.262Z,167.57
2023-01-22T23:51:22.277Z,158.75
2023-01-22T23:53:54.118Z,173.40
2023-01-22T23:56:25.366Z,188.70
2023-01-22T23:58:56.167Z,182.00
